createdAt,value
2023-10-16T00:01:04.270Z,1.88
2023-10-16T00:03:32.201Z,2.35
2023-10-16T00:05:58.742Z,1.95
2023-10-16T00:08:25.964Z,1.95
2023-10-16T00:10:58.502Z,2.33
2023-10-16T00:13:29.389Z,1.75
2023-10-16T00:15:57.215Z,1.90
2023-10-16T00:18:24.720Z,1.80
2023-10-16T00:20:52.787Z,1.77
2023-10-16T00:23:21.179Z,2.08
2023-10-16T00:25:47.719Z,1.77
2023-10-16T00:28:16.915Z,1.75
2023-10-16T00:30:44.435Z,1.95
2023-10-16T00:33:13.067Z,1.80
2023-10-16T00:35:42.603Z,2.40
2023-10-16T00:38:20.363Z,1.92
2023-10-16T00:41:06.081Z,1.98
2023-10-16T00:43:35.581Z,1.73
2023-10-16T00:46:11.865Z,2.03
2023-10-16T00:48:43.263Z,1.88
2023-10-16T00:51:10.684Z,2.08
2023-10-16T00:53:39.071Z,1.90
2023-10-16T00:56:09.360Z,2.20
2023-10-16T00:58:36.558Z,2.20
2023-10-16T01:01:10.089Z,2.15
2023-10-16T01:03:38.320Z,1.90
2023-10-16T01:06:18.645Z,2.10
2023-10-16T01:08:50.801Z,2.40
2023-10-16T01:11:20.135Z,1.90
2023-10-16T01:13:51.972Z,2.00
2023-10-16T01:16:19.895Z,2.00
2023-10-16T01:18:46.973Z,2.05
2023-10-16T01:21:16.613Z,2.10
2023-10-16T01:23:45.560Z,2.10
2023-10-16T01:26:15.910Z,1.80
2023-10-16T01:28:42.504Z,2.00
2023-10-16T01:31:09.027Z,1.73
2023-10-16T01:33:36.466Z,2.10
2023-10-16T01:36:08.191Z,2.35
2023-10-16T01:38:35.785Z,2.17
2023-10-16T01:41:06.449Z,2.00
2023-10-16T01:43:34.556Z,2.10
2023-10-16T01:46:12.240Z,1.90
2023-10-16T01:48:42.840Z,2.28
2023-10-16T01:51:12.887Z,2.00
2023-10-16T01:53:40.649Z,1.70
2023-10-16T01:56:14.554Z,2.05
2023-10-16T01:58:48.561Z,2.03
2023-10-16T02:01:17.504Z,1.95
2023-10-16T02:03:46.362Z,1.95
2023-10-16T02:06:13.500Z,2.00
2023-10-16T02:08:41.203Z,2.10
2023-10-16T02:11:08.248Z,2.10
2023-10-16T02:13:37.879Z,2.55
2023-10-16T02:16:07.434Z,1.88
2023-10-16T02:18:41.413Z,2.15
2023-10-16T02:21:15.042Z,2.08
2023-10-16T02:23:47.175Z,2.00
2023-10-16T02:26:19.279Z,2.10
2023-10-16T02:28:54.748Z,2.20
2023-10-16T02:31:21.884Z,1.90
2023-10-16T02:33:54.816Z,1.90
2023-10-16T02:36:25.101Z,1.80
2023-10-16T02:38:51.660Z,2.27
2023-10-16T02:41:21.024Z,2.35
2023-10-16T02:43:49.137Z,1.88
2023-10-16T02:46:22.346Z,2.15
2023-10-16T02:48:48.782Z,2.35
2023-10-16T02:51:17.604Z,2.10
2023-10-16T02:53:44.548Z,1.95
2023-10-16T02:56:14.316Z,2.00
2023-10-16T02:58:56.038Z,2.08
2023-10-16T03:01:25.792Z,1.75
2023-10-16T03:03:53.418Z,2.20
2023-10-16T03:06:21.074Z,2.13
2023-10-16T03:08:50.560Z,2.08
2023-10-16T03:11:18.033Z,1.60
2023-10-16T03:13:48.648Z,1.90
2023-10-16T03:16:22.672Z,2.42
2023-10-16T03:18:49.371Z,1.67
2023-10-16T03:21:17.095Z,1.90
2023-10-16T03:23:45.354Z,1.90
2023-10-16T03:26:30.380Z,2.00
2023-10-16T03:28:58.435Z,2.08
2023-10-16T03:31:25.408Z,1.92
2023-10-16T03:33:52.356Z,2.00
2023-10-16T03:36:18.809Z,1.85
2023-10-16T03:38:46.701Z,2.33
2023-10-16T03:41:22.261Z,1.85
2023-10-16T03:43:57.648Z,1.77
2023-10-16T03:46:25.197Z,1.95
2023-10-16T03:48:51.615Z,1.90
2023-10-16T03:51:18.055Z,1.75
2023-10-16T03:53:45.353Z,1.90
2023-10-16T03:56:14.936Z,2.08
2023-10-16T03:58:44.953Z,1.90
2023-10-16T04:01:12.757Z,1.80
2023-10-16T04:03:49.011Z,1.85
2023-10-16T04:06:20.322Z,2.05
2023-10-16T04:08:50.744Z,1.90
2023-10-16T04:11:18.156Z,1.85
2023-10-16T04:13:50.811Z,1.70
2023-10-16T04:16:36.340Z,1.70
2023-10-16T04:19:14.655Z,1.77
2023-10-16T04:21:46.924Z,2.00
2023-10-16T04:24:26.303Z,1.80
2023-10-16T04:27:09.149Z,1.95
2023-10-16T04:29:49.266Z,2.45
2023-10-16T04:32:34.754Z,2.00
2023-10-16T04:35:19.648Z,2.10
2023-10-16T04:37:50.555Z,2.03
2023-10-16T04:40:16.972Z,2.22
2023-10-16T04:43:02.162Z,2.05
2023-10-16T04:45:40.167Z,2.20
2023-10-16T04:48:07.315Z,2.45
2023-10-16T04:53:08.325Z,1.77
2023-10-16T04:55:41.858Z,2.42
2023-10-16T04:58:24.951Z,2.20
2023-10-16T05:01:12.546Z,2.33
2023-10-16T05:03:39.106Z,2.60
2023-10-16T05:06:15.533Z,2.40
2023-10-16T05:09:20.541Z,2.28
2023-10-16T05:11:56.198Z,2.47
2023-10-16T05:14:29.742Z,2.30
2023-10-16T05:17:22.506Z,2.05
2023-10-16T05:19:55.386Z,2.10
2023-10-16T05:22:36.882Z,2.20
2023-10-16T05:25:22.516Z,2.03
2023-10-16T05:28:07.349Z,2.40
2023-10-16T05:30:52.312Z,2.08
2023-10-16T05:33:37.129Z,1.90
2023-10-16T05:36:22.470Z,2.00
2023-10-16T05:39:07.320Z,2.30
2023-10-16T05:41:52.314Z,1.95
2023-10-16T05:44:37.092Z,2.05
2023-10-16T05:47:21.942Z,2.22
2023-10-16T05:50:06.606Z,2.33
2023-10-16T05:52:51.273Z,1.95
2023-10-16T05:55:36.120Z,1.80
2023-10-16T05:58:20.868Z,2.42
2023-10-16T06:01:05.782Z,2.05
2023-10-16T06:03:51.056Z,1.88
2023-10-16T06:06:36.193Z,1.85
2023-10-16T06:09:21.035Z,1.92
2023-10-16T06:12:05.917Z,2.28
2023-10-16T06:14:38.207Z,2.00
2023-10-16T06:17:20.221Z,2.03
2023-10-16T06:19:46.614Z,1.85
2023-10-16T06:22:13.599Z,1.92
2023-10-16T06:24:45.599Z,2.05
2023-10-16T06:27:13.100Z,2.30
2023-10-16T06:29:52.636Z,1.95
2023-10-16T06:32:23.878Z,1.50
2023-10-16T06:35:08.340Z,2.13
2023-10-16T06:37:34.754Z,2.28
2023-10-16T06:40:06.172Z,2.17
2023-10-16T06:42:32.765Z,2.05
2023-10-16T06:45:07.619Z,1.98
2023-10-16T06:47:37.505Z,2.05
2023-10-16T06:50:24.207Z,2.00
2023-10-16T06:52:52.266Z,2.03
2023-10-16T06:55:19.532Z,2.75
2023-10-16T06:57:46.162Z,2.70
2023-10-16T07:00:28.463Z,2.22
2023-10-16T07:02:56.605Z,2.03
2023-10-16T07:05:26.364Z,2.22
2023-10-16T07:07:58.425Z,1.98
2023-10-16T07:10:26.441Z,2.28
2023-10-16T07:13:03.738Z,2.58
2023-10-16T07:15:31.153Z,2.58
2023-10-16T07:18:04.431Z,2.83
2023-10-16T07:20:31.898Z,2.78
2023-10-16T07:23:00.396Z,2.97
2023-10-16T07:25:47.067Z,2.80
2023-10-16T07:28:13.601Z,1.98
2023-10-16T07:30:46.010Z,2.10
2023-10-16T07:33:16.831Z,2.45
2023-10-16T07:35:45.810Z,2.85
2023-10-16T07:38:27.074Z,2.80
2023-10-16T07:43:29.076Z,2.42
2023-10-16T07:46:17.743Z,3.17
2023-10-16T07:48:52.028Z,3.08
2023-10-16T07:51:21.448Z,3.25
2023-10-16T07:53:52.241Z,2.90
2023-10-16T07:56:20.733Z,3.08
2023-10-16T07:58:50.861Z,3.25
2023-10-16T08:01:17.569Z,3.33
2023-10-16T08:03:48.010Z,3.88
2023-10-16T08:06:18.472Z,3.78
2023-10-16T08:08:49.582Z,2.73
2023-10-16T08:11:21.996Z,2.75
2023-10-16T08:13:52.433Z,3.22
2023-10-16T08:16:24.569Z,3.75
2023-10-16T08:18:54.097Z,3.03
2023-10-16T08:21:26.779Z,3.17
2023-10-16T08:23:56.561Z,2.70
2023-10-16T08:26:29.678Z,3.05
2023-10-16T08:29:15.600Z,2.53
2023-10-16T08:31:43.179Z,2.70
2023-10-16T08:34:11.793Z,2.35
2023-10-16T08:36:38.435Z,2.10
2023-10-16T08:39:11.506Z,2.40
2023-10-16T08:41:44.140Z,2.35
2023-10-16T08:44:16.084Z,2.30
2023-10-16T08:46:46.607Z,1.83
2023-10-16T08:49:13.515Z,2.78
2023-10-16T08:51:40.103Z,2.22
2023-10-16T08:54:26.765Z,2.58
2023-10-16T08:56:54.985Z,2.70
2023-10-16T08:59:26.444Z,1.65
2023-10-16T09:01:58.491Z,1.85
2023-10-16T09:04:26.892Z,1.35
2023-10-16T09:06:53.504Z,1.45
2023-10-16T09:09:21.362Z,1.17
2023-10-16T09:11:48.827Z,1.80
2023-10-16T09:14:21.876Z,1.30
2023-10-16T09:16:49.494Z,1.60
2023-10-16T09:19:16.221Z,1.40
2023-10-16T09:21:45.401Z,1.40
2023-10-16T09:24:15.707Z,2.25
2023-10-16T09:26:55.422Z,1.03
2023-10-16T09:29:27.087Z,1.40
2023-10-16T09:31:54.615Z,1.65
2023-10-16T09:34:23.416Z,1.50
2023-10-16T09:37:10.793Z,1.48
2023-10-16T09:39:50.454Z,1.20
2023-10-16T09:42:25.309Z,1.65
2023-10-16T09:45:07.947Z,1.30
2023-10-16T09:47:39.150Z,1.60
2023-10-16T09:55:14.144Z,1.20
2023-10-16T09:57:50.738Z,1.27
2023-10-16T10:00:29.586Z,1.15
2023-10-16T10:03:06.398Z,0.90
2023-10-16T10:06:05.527Z,1.08
2023-10-16T10:08:54.490Z,0.75
2023-10-16T10:11:39.391Z,0.47
2023-10-16T10:14:28.392Z,0.85
2023-10-16T10:16:58.351Z,0.95
2023-10-16T10:19:33.237Z,1.13
2023-10-16T10:22:19.502Z,1.88
2023-10-16T10:24:52.451Z,0.63
2023-10-16T10:27:19.035Z,0.80
2023-10-16T10:29:48.738Z,0.88
2023-10-16T10:32:15.737Z,0.80
2023-10-16T10:34:45.461Z,0.85
2023-10-16T10:37:46.486Z,0.80
2023-10-16T10:40:22.681Z,0.77
2023-10-16T10:42:58.229Z,0.82
2023-10-16T10:45:35.075Z,0.65
2023-10-16T10:48:11.993Z,1.02
2023-10-16T10:50:39.800Z,0.50
2023-10-16T10:53:15.771Z,0.77
2023-10-16T10:55:58.942Z,0.73
2023-10-16T10:58:33.184Z,0.60
2023-10-16T11:01:27.739Z,0.80
2023-10-16T11:03:56.384Z,0.60
2023-10-16T11:06:40.725Z,0.50
2023-10-16T11:09:13.439Z,0.43
2023-10-16T11:11:40.844Z,0.25
2023-10-16T11:14:08.885Z,0.40
2023-10-16T11:16:46.316Z,0.98
2023-10-16T11:19:13.171Z,0.55
2023-10-16T11:21:46.769Z,0.40
2023-10-16T11:24:14.883Z,0.50
2023-10-16T11:26:43.257Z,0.80
2023-10-16T11:29:13.416Z,0.47
2023-10-16T11:31:45.462Z,0.50
2023-10-16T11:34:15.059Z,0.52
2023-10-16T11:39:30.956Z,0.65
2023-10-16T11:41:59.316Z,0.80
2023-10-16T11:44:33.278Z,0.85
2023-10-16T11:47:02.571Z,0.43
2023-10-16T11:49:36.903Z,0.50
2023-10-16T11:52:21.084Z,0.40
2023-10-16T11:54:50.009Z,0.32
2023-10-16T11:57:17.699Z,0.40
2023-10-16T11:59:45.164Z,0.30
2023-10-16T12:02:19.360Z,0.45
2023-10-16T12:04:46.289Z,0.28
2023-10-16T12:07:15.093Z,0.60
2023-10-16T12:09:52.877Z,0.20
2023-10-16T12:12:23.518Z,0.50
2023-10-16T12:14:51.272Z,0.30
2023-10-16T12:17:22.082Z,0.40
2023-10-16T12:19:49.014Z,0.20
2023-10-16T12:22:21.916Z,0.30
2023-10-16T12:24:49.235Z,0.20
2023-10-16T12:27:16.832Z,0.30
2023-10-16T12:29:45.158Z,0.30
2023-10-16T12:32:11.730Z,0.32
2023-10-16T12:34:38.360Z,0.45
2023-10-16T12:37:08.489Z,0.47
2023-10-16T12:39:46.317Z,0.30
2023-10-16T12:42:14.613Z,0.30
2023-10-16T12:44:41.918Z,0.40
2023-10-16T12:47:08.751Z,0.30
2023-10-16T12:49:35.307Z,0.55
2023-10-16T12:52:01.996Z,0.50
2023-10-16T12:54:28.697Z,0.28
2023-10-16T12:56:55.397Z,0.22
2023-10-16T12:59:22.068Z,0.20
2023-10-16T13:01:50.754Z,0.60
2023-10-16T13:04:18.622Z,0.25
2023-10-16T13:06:46.057Z,0.30
2023-10-16T13:09:19.462Z,0.40
2023-10-16T13:11:47.549Z,0.60
2023-10-16T13:14:14.267Z,0.20
2023-10-16T13:16:41.814Z,0.32
2023-10-16T13:19:11.442Z,0.20
2023-10-16T13:21:42.970Z,0.30
2023-10-16T13:24:17.545Z,0.55
2023-10-16T13:26:45.237Z,0.40
2023-10-16T13:29:14.144Z,0.55
2023-10-16T13:31:42.477Z,0.30
2023-10-16T13:34:12.462Z,0.50
2023-10-16T13:36:39.605Z,0.33
2023-10-16T13:39:10.207Z,0.40
2023-10-16T13:41:51.627Z,0.30
2023-10-16T13:44:23.235Z,0.65
2023-10-16T13:46:50.649Z,0.60
2023-10-16T13:49:19.220Z,0.25
2023-10-16T13:51:46.696Z,0.60
2023-10-16T13:54:13.466Z,0.60
2023-10-16T13:56:40.589Z,0.30
2023-10-16T13:59:07.646Z,0.30
2023-10-16T14:01:41.636Z,0.32
2023-10-16T14:04:22.569Z,0.30
2023-10-16T14:06:52.946Z,0.20
2023-10-16T14:09:21.612Z,0.30
2023-10-16T14:11:48.949Z,0.40
2023-10-16T14:14:21.457Z,0.32
2023-10-16T14:16:54.058Z,0.40
2023-10-16T14:19:30.018Z,0.20
2023-10-16T14:21:58.641Z,0.68
2023-10-16T14:24:27.687Z,0.40
2023-10-16T14:27:00.251Z,0.40
2023-10-16T14:29:28.406Z,0.90
2023-10-16T14:31:59.555Z,0.55
2023-10-16T14:34:27.908Z,0.40
2023-10-16T14:36:56.679Z,0.40
2023-10-16T14:39:29.963Z,0.82
2023-10-16T14:41:58.369Z,0.40
2023-10-16T14:44:25.445Z,0.40
2023-10-16T14:46:52.209Z,0.40
2023-10-16T14:49:20.267Z,0.25
2023-10-16T14:51:46.684Z,1.15
2023-10-16T14:54:13.658Z,0.50
2023-10-16T14:56:40.484Z,0.45
2023-10-16T14:59:15.729Z,0.65
2023-10-16T15:01:42.943Z,0.60
2023-10-16T15:04:10.174Z,0.47
2023-10-16T15:06:36.883Z,0.35
2023-10-16T15:09:10.446Z,0.40
2023-10-16T15:11:36.807Z,0.65
2023-10-16T15:14:04.855Z,0.90
2023-10-16T15:16:31.559Z,0.60
2023-10-16T15:18:58.037Z,1.58
2023-10-16T15:21:24.604Z,1.70
2023-10-16T15:23:50.999Z,0.50
2023-10-16T15:26:17.368Z,0.70
2023-10-16T15:28:46.514Z,0.45
2023-10-16T15:31:15.811Z,1.08
2023-10-16T15:33:43.367Z,0.80
2023-10-16T15:36:09.999Z,0.50
2023-10-16T15:38:38.618Z,1.67
2023-10-16T15:41:09.343Z,1.00
2023-10-16T15:43:36.757Z,1.02
2023-10-16T15:46:04.377Z,1.10
2023-10-16T15:48:31.011Z,0.70
2023-10-16T15:50:57.391Z,1.77
2023-10-16T15:53:23.745Z,1.38
2023-10-16T15:55:50.160Z,1.55
2023-10-16T15:58:16.662Z,1.02
2023-10-16T16:00:43.154Z,0.70
2023-10-16T16:03:10.421Z,0.90
2023-10-16T16:05:38.749Z,0.85
2023-10-16T16:08:06.909Z,0.47
2023-10-16T16:10:34.306Z,0.60
2023-10-16T16:13:02.433Z,0.93
2023-10-16T16:15:29.256Z,0.98
2023-10-16T16:18:01.254Z,0.80
2023-10-16T16:20:29.110Z,0.60
2023-10-16T16:22:57.652Z,0.60
2023-10-16T16:25:27.084Z,1.02
2023-10-16T16:27:54.193Z,1.50
2023-10-16T16:28:21.945Z,0.40
2023-10-16T16:30:21.632Z,1.13
2023-10-16T16:32:51.241Z,2.08
2023-10-16T16:35:19.580Z,2.00
2023-10-16T16:37:56.844Z,2.40
2023-10-16T16:40:24.512Z,2.33
2023-10-16T16:42:51.891Z,2.10
2023-10-16T16:45:21.890Z,1.88
2023-10-16T16:47:48.570Z,1.80
2023-10-16T16:50:16.138Z,1.50
2023-10-16T16:52:42.541Z,1.70
2023-10-16T16:55:09.977Z,1.77
2023-10-16T16:57:37.115Z,2.55
2023-10-16T17:00:11.372Z,2.00
2023-10-16T17:02:40.802Z,1.92
2023-10-16T17:05:08.735Z,4.28
2023-10-16T17:07:36.035Z,5.10
2023-10-16T17:10:03.656Z,4.18
2023-10-16T17:12:30.056Z,2.97
2023-10-16T17:14:56.970Z,2.20
2023-10-16T17:17:23.515Z,2.08
2023-10-16T17:19:52.221Z,1.77
2023-10-16T17:22:18.607Z,2.65
2023-10-16T17:24:44.975Z,2.03
2023-10-16T17:27:11.787Z,1.83
2023-10-16T17:29:38.753Z,1.80
2023-10-16T17:32:06.456Z,1.63
2023-10-16T17:34:32.856Z,2.45
2023-10-16T17:37:04.819Z,2.17
2023-10-16T17:39:31.216Z,2.00
2023-10-16T17:41:57.691Z,2.53
2023-10-16T17:44:26.221Z,2.60
2023-10-16T17:46:53.559Z,4.03
2023-10-16T17:49:24.182Z,3.55
2023-10-16T17:51:52.599Z,5.07
2023-10-16T17:54:19.117Z,4.68
2023-10-16T17:56:47.005Z,4.68
2023-10-16T17:59:13.402Z,3.97
2023-10-16T18:01:42.307Z,3.60
2023-10-16T18:04:08.910Z,4.28
2023-10-16T18:06:39.866Z,3.95
2023-10-16T18:09:08.631Z,4.18
2023-10-16T18:11:39.926Z,6.85
2023-10-16T18:14:10.729Z,9.88
2023-10-16T18:16:40.760Z,8.50
2023-10-16T18:19:07.670Z,6.38
2023-10-16T18:21:34.189Z,4.78
2023-10-16T18:24:04.264Z,3.78
2023-10-16T18:26:33.585Z,4.25
2023-10-16T18:29:00.270Z,3.60
2023-10-16T18:31:30.544Z,3.30
2023-10-16T18:33:56.916Z,3.60
2023-10-16T18:36:23.354Z,3.25
2023-10-16T18:38:50.437Z,2.53
2023-10-16T18:41:17.863Z,2.92
2023-10-16T18:43:44.447Z,2.60
2023-10-16T18:46:12.549Z,2.50
2023-10-16T18:48:41.310Z,2.47
2023-10-16T18:51:07.757Z,1.88
2023-10-16T18:53:34.118Z,2.17
2023-10-16T18:56:00.499Z,2.00
2023-10-16T18:58:26.847Z,1.85
2023-10-16T19:01:02.822Z,1.25
2023-10-16T19:03:29.343Z,1.25
2023-10-16T19:05:55.891Z,1.00
2023-10-16T19:08:22.381Z,1.70
2023-10-16T19:10:49.631Z,1.70
2023-10-16T19:13:16.018Z,2.45
2023-10-16T19:15:42.653Z,1.80
2023-10-16T19:18:12.999Z,1.40
2023-10-16T19:20:39.684Z,1.60
2023-10-16T19:23:06.329Z,2.97
2023-10-16T19:25:32.676Z,2.40
2023-10-16T19:27:59.089Z,2.45
2023-10-16T19:30:25.519Z,2.80
2023-10-16T19:32:53.153Z,2.85
2023-10-16T19:35:19.741Z,2.47
2023-10-16T19:37:46.187Z,2.80
2023-10-16T19:40:12.759Z,2.30
2023-10-16T19:42:48.312Z,2.40
2023-10-16T19:45:15.848Z,2.15
2023-10-16T19:47:43.506Z,2.47
2023-10-16T19:50:10.899Z,2.03
2023-10-16T19:52:40.230Z,2.38
2023-10-16T19:55:19.043Z,1.50
2023-10-16T19:57:46.527Z,1.33
2023-10-16T20:00:28.147Z,1.30
2023-10-16T20:02:55.380Z,1.00
2023-10-16T20:05:22.179Z,0.95
2023-10-16T20:07:50.674Z,1.25
2023-10-16T20:10:20.377Z,0.95
2023-10-16T20:12:48.815Z,0.70
2023-10-16T20:15:18.335Z,0.93
2023-10-16T20:17:46.403Z,0.90
2023-10-16T20:20:28.694Z,0.95
2023-10-16T20:22:59.804Z,0.73
2023-10-16T20:25:34.477Z,0.85
2023-10-16T20:28:08.408Z,1.42
2023-10-16T20:30:41.247Z,2.50
2023-10-16T20:33:08.120Z,3.67
2023-10-16T20:35:35.928Z,2.55
2023-10-16T20:38:05.533Z,1.38
2023-10-16T20:40:35.534Z,1.25
2023-10-16T20:43:02.109Z,1.45
2023-10-16T20:45:28.532Z,0.88
2023-10-16T20:47:57.330Z,1.10
2023-10-16T20:50:27.543Z,0.80
2023-10-16T20:52:54.925Z,1.00
2023-10-16T20:55:24.824Z,0.98
2023-10-16T20:57:53.698Z,0.85
2023-10-16T21:00:26.339Z,1.00
2023-10-16T21:02:54.774Z,1.08
2023-10-16T21:05:25.918Z,1.17
2023-10-16T21:07:54.247Z,1.55
2023-10-16T21:10:22.010Z,1.77
2023-10-16T21:12:48.399Z,1.52
2023-10-16T21:15:14.805Z,1.60
2023-10-16T21:17:41.309Z,1.77
2023-10-16T21:20:11.232Z,1.65
2023-10-16T21:22:37.848Z,1.80
2023-10-16T21:25:05.093Z,1.70
2023-10-16T21:27:31.528Z,2.10
2023-10-16T21:29:57.916Z,2.05
2023-10-16T21:32:24.333Z,2.38
2023-10-16T21:34:51.540Z,2.38
2023-10-16T21:37:18.784Z,2.67
2023-10-16T21:39:47.839Z,2.25
2023-10-16T21:42:17.870Z,2.30
2023-10-16T21:44:44.601Z,2.10
2023-10-16T21:47:12.452Z,2.58
2023-10-16T21:49:43.268Z,2.45
2023-10-16T21:52:13.139Z,3.25
2023-10-16T21:54:43.918Z,2.47
2023-10-16T21:57:13.205Z,2.45
2023-10-16T21:59:39.640Z,2.70
2023-10-16T22:02:06.620Z,2.38
2023-10-16T22:04:33.925Z,2.17
2023-10-16T22:07:01.054Z,2.28
2023-10-16T22:09:30.519Z,2.40
2023-10-16T22:12:00.674Z,2.45
2023-10-16T22:14:27.721Z,2.33
2023-10-16T22:16:58.483Z,2.20
2023-10-16T22:19:25.246Z,2.17
2023-10-16T22:21:53.309Z,2.03
2023-10-16T22:24:20.318Z,1.55
2023-10-16T22:26:47.079Z,2.53
2023-10-16T22:29:13.689Z,2.30
2023-10-16T22:31:40.600Z,1.70
2023-10-16T22:34:07.531Z,1.73
2023-10-16T22:36:34.915Z,2.13
2023-10-16T22:39:03.770Z,1.42
2023-10-16T22:41:31.195Z,1.67
2023-10-16T22:43:58.622Z,1.45
2023-10-16T22:46:28.873Z,1.70
2023-10-16T22:48:55.814Z,1.43
2023-10-16T22:51:23.218Z,2.10
2023-10-16T22:53:50.992Z,1.30
2023-10-16T22:56:18.372Z,1.55
2023-10-16T22:58:46.256Z,1.95
2023-10-16T23:01:13.050Z,1.23
2023-10-16T23:03:40.168Z,1.50
2023-10-16T23:06:07.083Z,1.40
2023-10-16T23:08:37.240Z,1.35
2023-10-16T23:11:24.600Z,1.30
2023-10-16T23:13:54.880Z,1.20
2023-10-16T23:16:28.544Z,1.10
2023-10-16T23:18:56.286Z,1.00
2023-10-16T23:21:25.906Z,1.17
2023-10-16T23:23:52.542Z,0.98
2023-10-16T23:26:21.805Z,0.95
2023-10-16T23:28:48.349Z,1.40
2023-10-16T23:31:17.922Z,0.98
2023-10-16T23:33:48.152Z,1.08
2023-10-16T23:36:15.113Z,1.23
2023-10-16T23:38:44.705Z,1.10
2023-10-16T23:41:20.873Z,1.00
2023-10-16T23:43:59.075Z,1.10
2023-10-16T23:46:32.115Z,1.23
2023-10-16T23:49:18.736Z,1.30
2023-10-16T23:51:48.398Z,1.33
2023-10-16T23:54:21.998Z,0.95
2023-10-16T23:56:51.794Z,1.70
2023-10-16T23:59:21.322Z,1.42
